Time;durP1;ratioP1;P1;durP2;ratioP2;P2;SDS_P1;SDS_P2;PMS_P1;PMS_P2;Temp;Humidity;BMP_temperature;BMP_pressure;BME280_temperature;BME280_humidity;BME280_pressure;Samples;Min_cycle;Max_cycle;Signal;HPM_P1;HPM_P2
2021/10/02 00:31:52;;;;;;;33.00;21.65;;;;;;;7.99;86.14;100993.88;1762503;81;25608;-50
2021/10/02 00:37:09;;;;;;;32.17;21.62;;;;;;;7.96;85.87;100985.53;1762547;81;25687;-49
2021/10/02 00:44:58;;;;;;;33.80;22.42;;;;;;;7.93;86.01;100976.66;1762527;81;25668;-53
2021/10/02 00:47:28;;;;;;;32.48;21.62;;;;;;;7.92;86.22;100970.47;1762457;81;25624;-54
2021/10/02 00:49:56;;;;;;;;;;;;;;;7.92;86.27;100959.69;1765179;81;25639;-53
2021/10/02 00:52:22;;;;;;;30.80;21.60;;;;;;;7.92;86.57;100961.59;1762624;81;27424;-53
2021/10/02 00:54:50;;;;;;;31.62;21.73;;;;;;;7.93;86.83;100962.63;1762416;81;25639;-52
2021/10/02 00:57:18;;;;;;;35.35;22.95;;;;;;;7.93;86.88;100962.63;1762537;81;25655;-51
2021/10/02 00:59:46;;;;;;;35.78;22.15;;;;;;;7.93;86.93;100955.90;1762497;81;25698;-52
2021/10/02 01:02:33;;;;;;;32.88;21.70;;;;;;;7.95;87.03;100950.24;1762682;81;25639;-53
2021/10/02 01:05:25;;;;;;;39.75;22.75;;;;;;;7.96;87.13;100949.97;1762632;81;27303;-51
2021/10/02 01:08:12;;;;;;;33.33;21.87;;;;;;;7.97;87.18;100952.94;1761698;81;25450;-51
2021/10/02 01:11:10;;;;;;;30.00;21.48;;;;;;;7.99;87.37;100948.63;1760717;79;25468;-54
2021/10/02 01:13:57;;;;;;;34.23;22.73;;;;;;;7.99;87.46;100945.38;1762464;81;27730;-51
2021/10/02 01:16:38;;;;;;;34.78;22.60;;;;;;;8.01;87.48;100943.22;1702332;82;25597;-52
2021/10/02 01:19:29;;;;;;;36.05;23.02;;;;;;;8.03;87.53;100941.04;1702475;84;28089;-52
2021/10/02 01:22:12;;;;;;;39.33;24.40;;;;;;;8.06;87.89;100939.70;1702352;84;25741;-54
2021/10/02 01:25:00;;;;;;;38.98;23.25;;;;;;;8.10;88.09;100940.75;1696064;84;25732;-53
2021/10/02 01:27:41;;;;;;;40.12;24.05;;;;;;;8.13;88.17;100940.20;1701418;84;25744;-51
2021/10/02 01:30:17;;;;;;;36.68;24.55;;;;;;;8.15;88.18;100936.69;1692462;84;25667;-51
2021/10/02 01:32:56;;;;;;;38.42;24.05;;;;;;;8.17;88.12;100935.89;1647787;86;27457;-52
2021/10/02 01:35:28;;;;;;;38.75;24.10;;;;;;;8.21;88.42;100934.79;1692205;84;25754;-53
2021/10/02 01:47:07;;;;;;;36.70;23.42;;;;;;;8.23;88.51;100936.11;1648255;86;25549;-55
2021/10/02 01:48:45;;;;;;;38.95;23.95;;;;;;;8.33;88.75;100926.38;1692296;84;27153;-51
2021/10/02 01:51:15;;;;;;;42.38;25.05;;;;;;;8.36;88.67;100921.23;1692430;84;25585;-52
2021/10/02 01:53:44;;;;;;;38.35;25.00;;;;;;;8.38;88.63;100918.26;1711423;82;25688;-50
2021/10/02 01:56:15;;;;;;;40.12;26.25;;;;;;;8.41;88.62;100921.72;1728393;83;25428;-52
2021/10/02 01:58:45;;;;;;;45.00;27.37;;;;;;;8.43;88.64;100917.44;1728115;83;27249;-54
2021/10/02 02:01:12;;;;;;;47.50;26.60;;;;;;;8.45;88.92;100907.20;1728312;83;25801;-51
2021/10/02 02:03:41;;;;;;;41.40;25.50;;;;;;;8.46;89.00;100904.20;1728276;83;25699;-54
2021/10/02 02:06:10;;;;;;;42.03;27.10;;;;;;;8.49;88.93;100909.59;1728322;83;25709;-54
2021/10/02 02:08:40;;;;;;;46.23;27.48;;;;;;;8.50;88.94;100901.77;1728467;81;25688;-50
2021/10/02 02:11:07;;;;;;;39.95;26.35;;;;;;;8.51;89.06;100900.15;1728243;80;27342;-49
2021/10/02 02:13:37;;;;;;;42.67;26.90;;;;;;;8.53;89.02;100898.49;1728272;83;25673;-53
2021/10/02 02:16:05;;;;;;;49.50;28.85;;;;;;;8.54;89.09;100899.56;1728320;81;25528;-50
2021/10/02 02:18:33;;;;;;;47.98;29.57;;;;;;;8.56;89.31;100907.38;1728219;81;25607;-51
2021/10/02 02:21:05;;;;;;;44.88;26.75;;;;;;;8.56;89.38;100900.11;1728321;83;25514;-49
2021/10/02 02:23:31;;;;;;;47.83;26.68;;;;;;;8.56;89.51;100902.81;1697509;83;27400;-52
2021/10/02 02:26:00;;;;;;;46.33;27.98;;;;;;;8.59;89.49;100898.73;1728127;83;25788;-49
2021/10/02 02:28:27;;;;;;;46.13;27.05;;;;;;;8.60;89.53;100893.61;1733419;81;25632;-50
2021/10/02 02:30:55;;;;;;;45.78;29.12;;;;;;;8.62;89.67;100887.94;1711604;82;25661;-53
2021/10/02 02:33:21;;;;;;;45.65;28.07;;;;;;;8.65;89.65;100886.83;1741947;82;25674;-53
2021/10/02 02:35:49;;;;;;;53.35;29.27;;;;;;;8.66;89.86;100884.38;1741876;82;26571;-52
2021/10/02 02:38:16;;;;;;;51.05;29.10;;;;;;;8.70;89.94;100884.09;1741868;82;25864;-50
2021/10/02 02:40:42;;;;;;;48.95;29.63;;;;;;;8.71;90.16;100881.64;1741871;82;25617;-54
2021/10/02 02:43:14;;;;;;;53.25;29.82;;;;;;;8.75;90.43;100884.58;1741846;82;26354;-51
2021/10/02 02:45:41;;;;;;;54.50;31.33;;;;;;;8.77;90.44;100883.23;1740868;82;25509;-53
2021/10/02 02:48:28;;;;;;;45.83;28.27;;;;;;;8.82;90.61;100879.69;1741943;82;27547;-49
2021/10/02 02:51:08;;;;;;;56.13;31.00;;;;;;;8.85;90.60;100883.15;1741879;81;25654;-48
2021/10/02 02:54:00;;;;;;;56.73;31.15;;;;;;;8.88;90.65;100878.54;1741915;82;25477;-48
2021/10/02 02:56:41;;;;;;;63.83;33.58;;;;;;;8.92;90.82;100876.91;1742030;81;25636;-48
2021/10/02 02:59:13;;;;;;;60.83;33.08;;;;;;;8.96;91.14;100864.45;1742051;81;25550;-48
2021/10/02 03:01:40;;;;;;;62.93;33.38;;;;;;;9.00;91.15;100867.93;1711766;82;28689;-48
2021/10/02 03:04:12;;;;;;;62.88;34.18;;;;;;;9.03;91.21;100868.16;1741959;81;25618;-50
2021/10/02 03:06:45;;;;;;;70.00;34.60;;;;;;;9.06;91.28;100861.38;1741379;82;25640;-49
2021/10/02 03:09:14;;;;;;;67.25;35.15;;;;;;;9.08;91.29;100864.63;1741980;82;26173;-51
2021/10/02 03:11:44;;;;;;;65.60;34.90;;;;;;;9.11;91.36;100858.11;1742186;81;25652;-52
2021/10/02 03:14:11;;;;;;;68.57;35.92;;;;;;;9.12;91.32;100858.34;1741973;82;29506;-51
2021/10/02 03:16:38;;;;;;;65.65;36.85;;;;;;;9.15;91.62;100860.48;1741913;82;27186;-51
2021/10/02 03:19:07;;;;;;;70.67;36.00;;;;;;;9.17;91.91;100860.20;1742029;82;25559;-52
2021/10/02 03:21:35;;;;;;;78.60;38.45;;;;;;;9.19;91.87;100860.71;1742106;82;25783;-51
2021/10/02 03:24:03;;;;;;;70.35;37.55;;;;;;;9.22;92.08;100860.15;1742045;81;25506;-52
2021/10/02 03:26:32;;;;;;;68.00;37.40;;;;;;;9.25;91.96;100857.44;1742000;81;27325;-50
2021/10/02 03:28:59;;;;;;;71.02;38.05;;;;;;;9.27;91.98;100852.55;1746420;81;25798;-52
2021/10/02 03:31:26;;;;;;;71.55;38.63;;;;;;;9.27;92.22;100852.00;1752207;81;25656;-51
2021/10/02 03:33:54;;;;;;;72.87;38.65;;;;;;;9.30;92.14;100848.73;1752069;81;26318;-52
2021/10/02 03:36:20;;;;;;;72.90;36.77;;;;;;;9.32;92.18;100850.59;1728353;81;25535;-50
2021/10/02 03:38:49;;;;;;;74.35;39.60;;;;;;;9.37;92.12;100848.95;1753902;81;27557;-51
2021/10/02 03:41:15;;;;;;;72.97;38.67;;;;;;;9.38;92.13;100849.19;1752053;81;25480;-51
2021/10/02 03:43:42;;;;;;;70.42;38.58;;;;;;;9.39;92.30;100852.95;1753805;80;25655;-51
2021/10/02 03:46:08;;;;;;;76.15;39.23;;;;;;;9.40;92.28;100838.89;1752014;81;25684;-50
2021/10/02 03:48:35;;;;;;;69.15;37.42;;;;;;;9.44;92.42;100841.30;1752092;81;25552;-51
2021/10/02 03:51:02;;;;;;;69.27;37.93;;;;;;;9.45;92.28;100844.23;1752087;81;27406;-51
2021/10/02 03:53:30;;;;;;;74.12;37.70;;;;;;;9.47;92.28;100844.22;1752076;81;25682;-50
2021/10/02 03:55:58;;;;;;;74.45;39.13;;;;;;;9.47;92.43;100842.88;1752102;81;25626;-51
2021/10/02 03:58:27;;;;;;;71.72;38.98;;;;;;;9.47;92.31;100848.27;1727709;81;25646;-50
2021/10/02 04:00:53;;;;;;;71.10;38.13;;;;;;;9.48;92.33;100843.14;1752104;81;25462;-48
2021/10/02 04:03:20;;;;;;;74.37;38.75;;;;;;;9.49;92.42;100839.89;1752059;81;27991;-48
2021/10/02 04:05:47;;;;;;;75.72;39.33;;;;;;;9.50;92.73;100845.53;1751933;81;25600;-50
2021/10/02 04:08:13;;;;;;;71.75;39.50;;;;;;;9.48;92.51;100842.31;1752009;81;25507;-49
2021/10/02 04:10:40;;;;;;;73.28;38.45;;;;;;;9.48;92.45;100846.37;1751976;81;25583;-51
2021/10/02 04:13:08;;;;;;;66.77;37.53;;;;;;;9.48;92.56;100845.02;1752113;81;25476;-50
2021/10/02 04:15:34;;;;;;;74.00;38.42;;;;;;;9.47;92.68;100840.73;1752052;81;28122;-51
2021/10/02 04:18:01;;;;;;;67.20;36.30;;;;;;;9.45;92.93;100849.11;1751963;81;27087;-49
2021/10/02 04:20:28;;;;;;;72.10;38.63;;;;;;;9.42;92.87;100840.78;1752070;81;25666;-53
2021/10/02 04:22:54;;;;;;;70.25;37.48;;;;;;;9.43;92.69;100854.53;1751995;81;25674;-53
2021/10/02 04:25:21;;;;;;;74.72;37.95;;;;;;;9.43;92.86;100849.12;1752067;81;25431;-50
2021/10/02 04:27:47;;;;;;;69.80;39.18;;;;;;;9.43;92.85;100851.30;1752009;81;26877;-50
2021/10/02 04:30:14;;;;;;;71.12;37.80;;;;;;;9.42;92.86;100846.98;1743231;81;25601;-51
2021/10/02 04:32:41;;;;;;;74.70;37.95;;;;;;;9.42;92.92;100848.89;1741924;82;25446;-53
2021/10/02 04:35:08;;;;;;;72.35;36.42;;;;;;;9.42;93.03;100851.59;1741914;81;25692;-51
2021/10/02 04:37:35;;;;;;;74.87;38.08;;;;;;;9.42;93.02;100852.38;1741982;81;25684;-50
2021/10/02 04:40:01;;;;;;;80.95;38.73;;;;;;;9.42;93.12;100848.33;1741941;82;27419;-52
2021/10/02 04:42:28;;;;;;;75.37;38.70;;;;;;;9.42;93.14;100855.08;1714225;83;25657;-50
2021/10/02 04:44:55;;;;;;;66.62;37.05;;;;;;;9.41;93.20;100841.31;1714408;83;25628;-49
2021/10/02 04:47:23;;;;;;;70.30;37.50;;;;;;;9.43;93.12;100855.88;1690275;83;25597;-48
2021/10/02 04:49:50;;;;;;;70.92;38.48;;;;;;;9.44;93.23;100853.45;1690495;83;25646;-49
2021/10/02 04:52:16;;;;;;;76.90;36.40;;;;;;;9.44;93.18;100843.44;1714502;83;27341;-49
2021/10/02 04:54:42;;;;;;;72.17;37.83;;;;;;;9.45;93.09;100853.16;1714300;83;25476;-49
2021/10/02 04:57:09;;;;;;;68.25;37.55;;;;;;;9.46;93.21;100845.30;1714408;83;25546;-49
2021/10/02 04:59:35;;;;;;;65.35;35.25;;;;;;;9.46;93.09;100849.35;1714352;83;25703;-49
2021/10/02 05:02:03;;;;;;;63.38;34.85;;;;;;;9.46;93.06;100843.95;1714433;83;25566;-50
2021/10/02 05:04:32;;;;;;;69.12;35.10;;;;;;;9.47;93.09;100846.13;1714485;83;27334;-49
2021/10/02 05:06:59;;;;;;;66.05;34.05;;;;;;;9.48;93.21;100846.37;1727226;82;25744;-49
2021/10/02 05:09:25;;;;;;;63.85;34.98;;;;;;;9.46;92.96;100838.55;1741869;81;25499;-48
2021/10/02 05:11:52;;;;;;;69.95;35.25;;;;;;;9.47;92.90;100844.78;1741911;82;25616;-52
2021/10/02 05:14:20;;;;;;;65.42;34.75;;;;;;;9.47;92.94;100838.82;1741924;81;25521;-52
2021/10/02 05:16:47;;;;;;;65.28;34.18;;;;;;;9.48;93.02;100849.89;1737095;82;27403;-49
2021/10/02 05:19:13;;;;;;;68.02;33.80;;;;;;;9.47;92.99;100848.27;1741952;81;25749;-50
2021/10/02 05:21:40;;;;;;;67.37;33.53;;;;;;;9.45;92.94;100845.59;1741929;81;25691;-49
2021/10/02 05:24:07;;;;;;;61.77;33.28;;;;;;;9.45;92.92;100852.34;1741894;81;25960;-49
2021/10/02 05:26:34;;;;;;;69.25;33.60;;;;;;;9.44;92.91;100844.00;1741902;81;25648;-49
2021/10/02 05:29:00;;;;;;;62.58;33.20;;;;;;;9.43;92.94;100846.42;1741769;81;27326;-49
2021/10/02 05:31:27;;;;;;;68.72;33.90;;;;;;;9.43;93.12;100849.12;1741779;81;27210;-50
2021/10/02 05:33:53;;;;;;;70.60;33.88;;;;;;;9.42;93.27;100844.28;1741920;82;25517;-52
2021/10/02 05:36:20;;;;;;;72.40;34.92;;;;;;;9.42;93.35;100839.44;1725667;82;25666;-49
2021/10/02 05:38:46;;;;;;;61.08;32.55;;;;;;;9.40;93.18;100835.67;1742020;81;25523;-52
2021/10/02 05:41:13;;;;;;;67.17;33.13;;;;;;;9.42;93.24;100839.44;1741880;82;27327;-50
2021/10/02 05:43:40;;;;;;;71.53;34.75;;;;;;;9.41;93.21;100838.61;1741827;82;25467;-50
2021/10/02 05:46:06;;;;;;;69.82;33.73;;;;;;;9.43;93.29;100836.98;1741889;82;25672;-54
2021/10/02 05:48:33;;;;;;;72.70;33.45;;;;;;;9.42;93.33;100824.03;1741853;82;25677;-49
2021/10/02 05:50:59;;;;;;;71.28;38.48;;;;;;;9.42;93.40;100826.73;1742034;81;25624;-53
2021/10/02 05:53:26;;;;;;;67.78;32.00;;;;;;;9.43;93.54;100822.12;1741885;82;29516;-54
2021/10/02 05:55:52;;;;;;;64.70;31.87;;;;;;;9.43;93.49;100822.95;1741810;82;25787;-51
2021/10/02 05:58:19;;;;;;;67.70;32.03;;;;;;;9.42;93.51;100817.28;1741913;81;25643;-49
2021/10/02 06:00:46;;;;;;;59.70;31.52;;;;;;;9.43;93.52;100815.38;1741838;81;25623;-50
2021/10/02 06:03:13;;;;;;;66.70;31.17;;;;;;;9.44;93.61;100808.34;1741894;82;25666;-51
2021/10/02 06:05:39;;;;;;;65.30;31.60;;;;;;;9.48;93.83;100812.09;1741878;81;27354;-55
2021/10/02 06:08:06;;;;;;;58.90;30.52;;;;;;;9.49;93.72;100818.28;1741786;82;25690;-50
2021/10/02 06:10:33;;;;;;;57.27;29.85;;;;;;;9.52;93.74;100833.91;1741828;82;25443;-50
2021/10/02 06:13:00;;;;;;;57.48;29.25;;;;;;;9.51;93.72;100826.34;1741858;82;26235;-49
2021/10/02 06:15:27;;;;;;;49.53;26.68;;;;;;;9.53;93.93;100825.53;1741877;82;25510;-53
2021/10/02 06:17:55;;;;;;;54.38;26.57;;;;;;;9.54;93.75;100835.22;1741902;82;27321;-55
2021/10/02 06:20:24;;;;;;;50.05;25.97;;;;;;;9.53;93.96;100830.11;1741767;82;25612;-55
2021/10/02 06:22:51;;;;;;;53.52;27.10;;;;;;;9.56;93.78;100820.64;1741897;82;25530;-55
2021/10/02 06:25:18;;;;;;;51.30;25.77;;;;;;;9.57;93.72;100820.88;1741861;81;25671;-55
2021/10/02 06:27:44;;;;;;;50.43;26.95;;;;;;;9.58;93.63;100823.30;1741876;81;25616;-55
2021/10/02 06:30:12;;;;;;;50.98;26.57;;;;;;;9.61;93.68;100832.73;1747610;81;27399;-54
2021/10/02 06:32:39;;;;;;;52.98;26.85;;;;;;;9.63;93.77;100826.48;1752047;81;25669;-55
2021/10/02 06:35:07;;;;;;;50.80;26.20;;;;;;;9.63;93.62;100827.28;1752154;81;25536;-55
2021/10/02 06:37:34;;;;;;;51.85;27.27;;;;;;;9.66;93.78;100824.00;1729388;82;25793;-55
2021/10/02 06:40:04;;;;;;;48.25;26.05;;;;;;;9.66;93.75;100814.55;1729497;81;25643;-55
2021/10/02 06:42:31;;;;;;;53.00;27.30;;;;;;;9.66;93.77;100815.91;1729490;82;27453;-55
2021/10/02 06:44:57;;;;;;;51.80;26.45;;;;;;;9.68;93.65;100821.81;1729385;82;27424;-55
2021/10/02 06:47:24;;;;;;;53.23;25.97;;;;;;;9.70;93.70;100820.17;1729422;82;25663;-55
2021/10/02 06:49:57;;;;;;;48.85;25.35;;;;;;;9.70;93.63;100814.77;1729447;81;25651;-54
2021/10/02 06:52:27;;;;;;;48.75;25.27;;;;;;;9.72;93.52;100820.16;1729508;82;25764;-57
2021/10/02 06:54:55;;;;;;;53.73;26.87;;;;;;;9.71;93.63;100817.19;1729065;82;28386;-57
2021/10/02 06:57:22;;;;;;;48.28;25.92;;;;;;;9.74;93.55;100814.47;1729399;82;25722;-57
2021/10/02 06:59:50;;;;;;;48.42;25.10;;;;;;;9.79;93.76;100818.98;1729480;82;25652;-57
2021/10/02 07:03:12;;;;;;;50.58;26.65;;;;;;;9.84;93.88;100822.96;1729445;82;25796;-57
2021/10/02 07:05:38;;;;;;;44.53;23.65;;;;;;;9.85;93.63;100817.27;1729444;82;25627;-56
2021/10/02 07:08:05;;;;;;;49.90;25.20;;;;;;;9.90;93.53;100828.56;1735838;81;28018;-55
2021/10/02 07:10:31;;;;;;;49.70;24.12;;;;;;;9.91;93.43;100822.08;1751798;81;25463;-57
2021/10/02 07:12:59;;;;;;;51.10;25.12;;;;;;;9.93;93.39;100825.28;1751362;81;25700;-55
2021/10/02 07:15:26;;;;;;;49.58;25.77;;;;;;;9.94;93.29;100830.92;1751472;81;25826;-56
2021/10/02 07:17:52;;;;;;;48.38;25.72;;;;;;;9.96;93.39;100834.17;1752104;81;25675;-56
2021/10/02 07:20:21;;;;;;;52.05;25.70;;;;;;;9.98;93.28;100835.23;1752078;81;27308;-56
2021/10/02 07:22:47;;;;;;;48.80;24.35;;;;;;;9.99;93.31;100834.91;1751932;81;25595;-55
2021/10/02 07:25:15;;;;;;;50.98;25.45;;;;;;;10.02;93.42;100836.24;1752075;81;25663;-55
2021/10/02 07:27:44;;;;;;;43.13;23.67;;;;;;;10.02;93.34;100835.69;1752251;81;26368;-56
2021/10/02 07:30:13;;;;;;;46.92;23.73;;;;;;;10.04;93.28;100834.84;1747512;81;25618;-55
2021/10/02 07:32:40;;;;;;;47.58;24.72;;;;;;;10.08;93.23;100837.23;1742013;81;27388;-57
2021/10/02 07:35:11;;;;;;;45.63;23.65;;;;;;;10.10;93.36;100836.94;1740811;81;25764;-55
2021/10/02 07:37:37;;;;;;;46.58;24.72;;;;;;;10.11;93.25;100835.83;1737057;82;25562;-54
2021/10/02 07:40:09;;;;;;;53.70;25.55;;;;;;;10.15;93.22;100833.34;1741291;82;25643;-55
2021/10/02 07:42:37;;;;;;;47.35;24.65;;;;;;;10.19;93.33;100841.14;1740671;81;25808;-55
2021/10/02 07:45:10;;;;;;;52.65;25.90;;;;;;;10.21;93.20;100832.18;1741354;82;27346;-56
2021/10/02 07:47:43;;;;;;;51.25;25.50;;;;;;;10.26;93.34;100833.46;1740978;82;25715;-58
2021/10/02 07:50:15;;;;;;;55.35;25.75;;;;;;;10.32;93.25;100836.91;1741841;81;25468;-57
2021/10/02 07:52:43;;;;;;;46.18;25.17;;;;;;;10.34;93.01;100836.89;1741944;82;25702;-57
2021/10/02 07:55:14;;;;;;;46.60;25.17;;;;;;;10.36;92.98;100841.45;1741744;81;25476;-57
2021/10/02 07:57:43;;;;;;;46.63;25.62;;;;;;;10.39;92.95;100834.66;1740904;82;27353;-57
2021/10/02 08:00:17;;;;;;;44.75;24.23;;;;;;;10.41;92.97;100844.07;1741676;81;25699;-57
2021/10/02 08:02:48;;;;;;;51.02;25.68;;;;;;;10.44;92.76;100841.34;1741985;81;25665;-57
2021/10/02 08:05:16;;;;;;;45.73;26.50;;;;;;;10.48;93.10;100836.94;1741630;82;25629;-57
2021/10/02 08:07:46;;;;;;;47.13;26.77;;;;;;;10.53;92.99;100836.86;1711473;82;25692;-57
2021/10/02 08:10:16;;;;;;;48.63;26.07;;;;;;;10.57;92.97;100822.19;1742090;81;27317;-57
2021/10/02 08:12:43;;;;;;;44.48;24.27;;;;;;;10.62;92.96;100823.45;1741901;82;25599;-56
2021/10/02 08:15:11;;;;;;;48.00;24.98;;;;;;;10.68;93.07;100823.64;1741935;82;25677;-57
2021/10/02 08:17:41;;;;;;;44.33;25.17;;;;;;;10.78;93.27;100817.26;1741943;81;25609;-55
2021/10/02 08:20:13;;;;;;;42.65;23.95;;;;;;;10.89;93.43;100820.02;1742019;81;25659;-54
2021/10/02 08:22:43;;;;;;;43.80;25.00;;;;;;;10.95;92.63;100809.92;1741849;81;28344;-54
2021/10/02 08:25:13;;;;;;;39.20;22.73;;;;;;;11.00;92.64;100807.91;1711480;82;25520;-53
2021/10/02 08:27:41;;;;;;;40.23;24.02;;;;;;;11.09;92.56;100816.14;1742045;81;25720;-53
2021/10/02 08:30:11;;;;;;;44.47;23.90;;;;;;;11.12;92.06;100812.84;1745237;81;25622;-53
2021/10/02 08:32:38;;;;;;;39.58;24.35;;;;;;;11.15;91.92;100813.60;1729178;81;25736;-53
2021/10/02 08:35:08;;;;;;;39.35;22.80;;;;;;;11.22;92.20;100819.98;1727416;81;27370;-53
2021/10/02 08:37:34;;;;;;;40.40;23.60;;;;;;;11.30;92.43;100813.84;1728175;81;25845;-54
2021/10/02 08:40:04;;;;;;;33.02;21.80;;;;;;;11.36;92.20;100826.19;1754755;81;25686;-54
2021/10/02 08:42:32;;;;;;;;;;;;;;;11.41;91.38;100814.45;1757324;81;25633;-54
2021/10/02 08:45:01;;;;;;;34.67;22.65;;;;;;;11.44;91.35;100813.86;1738859;82;25766;-53
2021/10/02 08:47:28;;;;;;;41.77;23.47;;;;;;;11.53;91.44;100813.95;1688323;85;26820;-54
2021/10/02 08:49:56;;;;;;;34.05;22.02;;;;;;;11.53;91.44;100813.95;1712505;83;25503;-54
2021/10/02 08:52:24;;;;;;;34.45;21.80;;;;;;;11.54;90.92;100810.94;1738778;82;25691;-53
2021/10/02 08:54:52;;;;;;;33.90;21.73;;;;;;;11.52;90.43;100800.14;1738841;82;25655;-56
2021/10/02 08:57:25;;;;;;;36.95;22.52;;;;;;;11.52;90.30;100805.56;1738866;82;25597;-54
2021/10/02 08:59:55;;;;;;;36.03;21.95;;;;;;;11.49;90.12;100801.56;1738881;82;27917;-54
2021/10/02 09:02:24;;;;;;;;;;;;;;;11.48;90.10;100802.66;1737213;82;25696;-53
2021/10/02 09:04:51;;;;;;;30.33;19.87;;;;;;;11.48;90.23;100804.02;1731961;82;25683;-55
2021/10/02 09:07:21;;;;;;;31.50;19.80;;;;;;;11.50;90.32;100807.22;1731661;82;25715;-55
2021/10/02 09:09:48;;;;;;;;;;;;;;;11.50;90.18;100797.73;1697794;83;25828;-53
2021/10/02 09:12:19;;;;;;;31.80;19.92;;;;;;;11.56;90.50;100807.38;1726252;83;27332;-53
2021/10/02 09:14:47;;;;;;;34.95;21.00;;;;;;;11.61;90.35;100796.16;1726163;83;25623;-51
2021/10/02 09:17:14;;;;;;;31.33;20.97;;;;;;;11.68;90.40;100788.42;1726231;83;25566;-52
2021/10/02 09:19:40;;;;;;;33.30;20.82;;;;;;;11.77;90.80;100789.33;1751950;81;25636;-51
2021/10/02 09:22:11;;;;;;;30.88;19.42;;;;;;;11.93;91.14;100789.23;1752014;81;25648;-52
2021/10/02 09:24:46;;;;;;;34.20;18.87;;;;;;;12.04;90.51;100788.47;1752055;81;27328;-54
2021/10/02 09:27:24;;;;;;;28.87;18.37;;;;;;;12.12;90.05;100785.03;1750677;81;25641;-53
2021/10/02 09:29:55;;;;;;;31.05;19.45;;;;;;;12.22;89.94;100785.89;1751891;81;25467;-54
2021/10/02 09:32:32;;;;;;;28.00;18.92;;;;;;;12.29;89.77;100783.55;1727210;81;25568;-54
2021/10/02 09:35:04;;;;;;;28.70;19.57;;;;;;;12.37;89.89;100780.09;1752037;81;25680;-54
2021/10/02 09:37:34;;;;;;;33.48;20.05;;;;;;;12.45;89.35;100775.84;1752014;81;29340;-54
2021/10/02 09:40:10;;;;;;;30.95;20.57;;;;;;;12.49;88.71;100785.75;1751889;81;26036;-54
2021/10/02 09:42:43;;;;;;;30.00;18.92;;;;;;;12.47;88.29;100778.48;1751982;81;25506;-54
2021/10/02 09:45:17;;;;;;;29.80;19.85;;;;;;;12.50;88.40;100777.08;1751997;81;25616;-54
2021/10/02 09:47:51;;;;;;;29.10;18.30;;;;;;;12.51;88.24;100776.77;1752046;81;25515;-55
2021/10/02 09:50:21;;;;;;;26.42;18.25;;;;;;;12.50;87.80;100779.80;1752046;81;27405;-55
2021/10/02 09:52:58;;;;;;;28.47;19.20;;;;;;;12.52;87.80;100781.07;1751949;81;25696;-55
2021/10/02 09:55:32;;;;;;;25.43;17.62;;;;;;;12.54;87.50;100772.63;1752104;81;25471;-55
2021/10/02 09:58:15;;;;;;;27.65;18.27;;;;;;;12.55;87.32;100773.41;1751954;81;25680;-55
2021/10/02 10:00:46;;;;;;;28.67;19.60;;;;;;;12.57;87.50;100778.80;1752053;81;25639;-55
2021/10/02 10:03:18;;;;;;;28.15;18.77;;;;;;;12.59;87.24;100772.49;1751838;81;27336;-55
2021/10/02 10:05:48;;;;;;;26.25;17.98;;;;;;;12.61;87.33;100770.83;1751900;81;25825;-55
2021/10/02 10:08:25;;;;;;;26.73;18.80;;;;;;;12.65;87.25;100769.08;1751978;81;25480;-54
2021/10/02 10:10:50;;;;;;;28.98;18.52;;;;;;;12.70;87.49;100765.70;1751725;81;25683;-54
2021/10/02 10:13:19;;;;;;;31.12;19.73;;;;;;;12.83;88.46;100765.91;1752000;81;25668;-53
2021/10/02 10:15:50;;;;;;;27.82;19.07;;;;;;;12.94;87.98;100753.67;1752136;81;27395;-53
2021/10/02 10:18:30;;;;;;;27.13;19.07;;;;;;;13.03;87.77;100757.20;1751429;81;25613;-51
2021/10/02 10:21:00;;;;;;;26.65;18.30;;;;;;;13.12;86.78;100751.02;1752041;81;25580;-51
2021/10/02 10:23:37;;;;;;;27.52;18.67;;;;;;;13.16;86.46;100750.08;1751964;81;25649;-54
2021/10/02 10:26:12;;;;;;;26.48;17.90;;;;;;;13.23;86.60;100749.05;1751457;81;25684;-54
2021/10/02 10:28:43;;;;;;;26.80;19.12;;;;;;;13.29;85.91;100744.83;1751976;81;27338;-54
2021/10/02 10:31:20;;;;;;;29.72;18.05;;;;;;;13.37;86.05;100743.52;1746870;81;25670;-54
2021/10/02 10:33:52;;;;;;;24.80;18.05;;;;;;;13.43;85.57;100743.62;1741937;81;25519;-54
2021/10/02 10:36:21;;;;;;;26.95;17.82;;;;;;;13.47;85.47;100744.32;1737009;82;25602;-55
2021/10/02 10:38:51;;;;;;;25.27;18.35;;;;;;;13.54;85.01;100740.03;1741892;82;25685;-55
2021/10/02 10:41:20;;;;;;;26.37;17.30;;;;;;;13.58;84.99;100738.83;1738665;81;30088;-54
2021/10/02 10:43:48;;;;;;;24.90;17.40;;;;;;;13.65;85.05;100726.92;1748878;82;25632;-55
2021/10/02 10:46:23;;;;;;;26.68;18.05;;;;;;;13.75;85.07;100718.45;1738546;82;25677;-54
2021/10/02 10:48:50;;;;;;;28.95;18.52;;;;;;;13.91;84.90;100728.84;1738479;82;25718;-55
2021/10/02 10:51:21;;;;;;;27.73;17.25;;;;;;;14.11;85.27;100718.66;1748893;82;25771;-55
2021/10/02 10:53:51;;;;;;;23.75;17.07;;;;;;;14.25;84.44;100714.42;1738542;82;27907;-54
2021/10/02 10:56:37;;;;;;;;;;;;;;;14.31;84.19;100711.75;1751321;82;27169;-54
2021/10/02 10:59:05;;;;;;;21.37;16.37;;;;;;;14.45;84.13;100714.84;1748878;82;25509;-54
2021/10/02 11:01:37;;;;;;;20.02;15.23;;;;;;;14.53;83.51;100705.28;1738478;82;25494;-54
2021/10/02 11:04:05;;;;;;;21.77;16.15;;;;;;;14.76;84.67;100703.70;1748861;82;25498;-54
2021/10/02 11:06:55;;;;;;;26.70;17.35;;;;;;;15.12;84.28;100695.61;1741370;82;27303;-54
2021/10/02 11:09:41;;;;;;;19.07;15.15;;;;;;;15.48;84.64;100692.88;1741752;82;25526;-54
2021/10/02 11:12:16;;;;;;;18.48;13.25;;;;;;;16.15;83.73;100682.84;1741917;82;25688;-54
2021/10/02 11:14:59;;;;;;;18.77;13.93;;;;;;;16.76;82.32;100689.54;1741832;82;25604;-53
2021/10/02 11:17:39;;;;;;;16.37;12.65;;;;;;;17.16;80.69;100680.65;1741907;82;25725;-54
2021/10/02 11:20:29;;;;;;;17.60;11.57;;;;;;;17.44;77.69;100682.08;1742084;81;29503;-54
2021/10/02 11:23:41;;;;;;;16.10;12.45;;;;;;;17.73;77.90;100682.33;1742009;81;25708;-53
2021/10/02 11:26:26;;;;;;;15.68;11.85;;;;;;;17.93;74.27;100677.05;1741995;82;25444;-53
2021/10/02 11:29:04;;;;;;;15.32;11.40;;;;;;;17.97;74.10;100677.14;1741945;82;25698;-53
2021/10/02 11:31:34;;;;;;;15.95;12.13;;;;;;;18.15;73.63;100684.44;1741958;81;25609;-53
2021/10/02 11:34:02;;;;;;;;;;;;;;;17.99;72.20;100670.73;1744597;82;28042;-51
2021/10/02 11:36:39;;;;;;;17.50;11.68;;;;;;;17.94;72.10;100679.20;1741969;81;25634;-54
2021/10/02 11:39:30;;;;;;;17.20;12.88;;;;;;;17.87;71.98;100676.48;1741980;82;25586;-52
2021/10/02 11:42:08;;;;;;;15.28;11.97;;;;;;;17.94;72.29;100670.98;1742036;81;25650;-51
2021/10/02 11:44:47;;;;;;;14.05;12.03;;;;;;;18.05;72.34;100671.50;1742143;81;25465;-54
2021/10/02 11:47:34;;;;;;;17.17;12.68;;;;;;;18.27;70.57;100666.59;1742201;81;27326;-54
2021/10/02 11:50:19;;;;;;;14.30;11.80;;;;;;;18.55;72.69;100667.87;1741928;82;25509;-54
2021/10/02 11:52:53;;;;;;;16.37;10.98;;;;;;;19.17;72.42;100667.36;1742002;82;25605;-52
2021/10/02 11:55:45;;;;;;;14.30;11.88;;;;;;;19.66;71.91;100665.44;1741999;81;25603;-54
2021/10/02 11:58:15;;;;;;;16.60;11.20;;;;;;;20.17;71.06;100667.80;1742040;82;25524;-53
2021/10/02 12:01:00;;;;;;;12.80;10.50;;;;;;;20.43;69.51;100662.94;1711406;82;27232;-54
2021/10/02 12:03:31;;;;;;;12.95;10.72;;;;;;;20.36;66.66;100660.08;1742000;82;25454;-51
2021/10/02 12:06:02;;;;;;;11.20;9.83;;;;;;;20.21;65.66;100656.28;1741969;82;25467;-51
2021/10/02 12:08:30;;;;;;;13.68;10.60;;;;;;;19.94;65.80;100654.26;1741912;81;25801;-52
2021/10/02 12:11:14;;;;;;;14.87;11.07;;;;;;;19.75;65.53;100647.41;1742232;82;25703;-52
2021/10/02 12:13:46;;;;;;;16.90;10.55;;;;;;;19.74;65.63;100658.97;1741987;81;28106;-53
2021/10/02 12:16:26;;;;;;;11.35;9.70;;;;;;;19.53;65.12;100644.79;1741928;82;25696;-53
2021/10/02 12:19:09;;;;;;;14.33;9.95;;;;;;;19.37;65.84;100649.77;1742094;81;25460;-53
2021/10/02 12:21:55;;;;;;;14.58;10.75;;;;;;;19.20;65.01;100648.82;1741963;82;26251;-53